Time;durP1;ratioP1;P1;durP2;ratioP2;P2;SDS_P1;SDS_P2;PMS_P1;PMS_P2;Temp;Humidity;BMP_temperature;BMP_pressure;BME280_temperature;BME280_humidity;BME280_pressure;Samples;Min_cycle;Max_cycle;Signal;HPM_P1;HPM_P2
2023/04/28 00:00:18;;;;;;;4.72;3.67;;;9.60;99.90;;;;;;5108103;28;20206;-67
2023/04/28 00:02:47;;;;;;;6.32;3.50;;;9.60;99.90;;;;;;5107609;28;20214;-68
2023/04/28 00:05:14;;;;;;;5.80;3.17;;;9.60;99.90;;;;;;5110097;28;20206;-68
2023/04/28 00:07:41;;;;;;;3.00;2.75;;;9.60;99.90;;;;;;5128386;27;20198;-67
2023/04/28 00:10:09;;;;;;;3.65;3.10;;;9.60;99.90;;;;;;5127997;27;20209;-67
2023/04/28 00:12:37;;;;;;;3.70;2.83;;;9.70;99.90;;;;;;5107802;27;20206;-66
2023/04/28 00:15:04;;;;;;;5.20;3.38;;;9.70;99.90;;;;;;5107364;28;20218;-68
2023/04/28 00:17:31;;;;;;;3.40;2.97;;;9.70;99.90;;;;;;5107812;28;20214;-67
2023/04/28 00:19:57;;;;;;;3.40;2.90;;;9.70;99.90;;;;;;5107597;28;20199;-67
2023/04/28 00:22:24;;;;;;;4.25;3.00;;;9.70;99.90;;;;;;5098775;28;20199;-68
2023/04/28 00:24:51;;;;;;;3.97;3.17;;;9.70;99.90;;;;;;5107582;28;20194;-67
2023/04/28 00:27:17;;;;;;;3.60;2.90;;;9.80;99.90;;;;;;5107448;28;20207;-68
2023/04/28 00:29:46;;;;;;;3.40;2.88;;;9.80;99.90;;;;;;5107452;28;20206;-67
2023/04/28 00:32:13;;;;;;;3.90;3.08;;;9.80;99.90;;;;;;5107038;28;20206;-67
2023/04/28 00:34:39;;;;;;;3.17;2.88;;;9.80;99.90;;;;;;5101438;28;20257;-67
2023/04/28 00:37:06;;;;;;;3.38;2.85;;;9.80;99.90;;;;;;5107639;28;20195;-68
2023/04/28 00:39:33;;;;;;;3.22;2.95;;;9.80;99.90;;;;;;5107618;28;20199;-67
2023/04/28 00:42:00;;;;;;;3.10;2.80;;;9.80;99.90;;;;;;5106927;28;20741;-67
2023/04/28 00:44:27;;;;;;;2.75;2.55;;;9.80;99.90;;;;;;5107257;28;20211;-68
2023/04/28 00:46:56;;;;;;;3.85;2.85;;;9.80;99.90;;;;;;5107059;28;20200;-67
2023/04/28 00:49:23;;;;;;;3.55;3.25;;;9.90;99.90;;;;;;5107028;28;20223;-68
2023/04/28 00:51:49;;;;;;;3.75;3.35;;;9.80;99.90;;;;;;5106629;28;20195;-67
2023/04/28 00:54:16;;;;;;;3.80;3.10;;;9.80;99.90;;;;;;5106550;28;20236;-68
2023/04/28 00:56:43;;;;;;;3.00;2.70;;;9.80;99.90;;;;;;5107043;28;20274;-67
2023/04/28 00:59:10;;;;;;;3.38;3.10;;;9.80;99.90;;;;;;5106631;28;20199;-67
2023/04/28 01:01:37;;;;;;;4.45;3.55;;;9.90;99.90;;;;;;5106592;28;20195;-67
2023/04/28 01:04:05;;;;;;;3.83;3.33;;;9.80;99.90;;;;;;5106391;28;20253;-67
2023/04/28 01:06:33;;;;;;;5.57;3.13;;;9.90;99.90;;;;;;5093910;28;20196;-67
2023/04/28 01:08:59;;;;;;;4.68;3.40;;;9.80;99.90;;;;;;5109264;28;20977;-67
2023/04/28 01:11:26;;;;;;;3.28;2.97;;;9.80;99.90;;;;;;5095835;28;20199;-68
2023/04/28 01:13:53;;;;;;;3.70;2.90;;;9.90;99.90;;;;;;5092888;28;20230;-67
2023/04/28 01:16:20;;;;;;;2.95;2.65;;;9.90;99.90;;;;;;5093033;28;20296;-68
2023/04/28 01:18:47;;;;;;;3.85;2.80;;;9.90;99.90;;;;;;5092889;28;20207;-68
2023/04/28 01:21:27;;;;;;;2.78;2.53;;;9.90;99.90;;;;;;5092814;28;20200;-67
2023/04/28 01:23:56;;;;;;;3.08;2.78;;;9.90;99.90;;;;;;5092728;28;20294;-68
2023/04/28 01:26:22;;;;;;;3.05;2.75;;;9.90;99.90;;;;;;5092837;28;20261;-67
2023/04/28 01:28:49;;;;;;;2.75;2.50;;;9.90;99.90;;;;;;5092612;28;20694;-68
2023/04/28 01:31:16;;;;;;;3.63;2.97;;;9.90;99.90;;;;;;5092524;28;20555;-67
2023/04/28 01:33:43;;;;;;;4.45;2.78;;;9.90;99.90;;;;;;5092224;28;22119;-68
2023/04/28 01:36:09;;;;;;;3.45;3.03;;;9.90;99.90;;;;;;5092492;28;20207;-67
2023/04/28 01:38:36;;;;;;;3.25;2.95;;;10.00;99.90;;;;;;5092598;28;20547;-67
2023/04/28 01:41:04;;;;;;;4.93;3.05;;;10.00;99.90;;;;;;5092334;28;20596;-67
2023/04/28 01:43:31;;;;;;;3.58;2.92;;;10.00;99.90;;;;;;5084156;28;20220;-67
2023/04/28 01:45:58;;;;;;;3.25;3.00;;;10.00;99.90;;;;;;5092473;28;20199;-67
2023/04/28 01:48:24;;;;;;;3.65;2.90;;;10.00;99.90;;;;;;5092324;28;20260;-67
2023/04/28 01:50:51;;;;;;;4.95;3.50;;;10.00;99.90;;;;;;5092201;28;20191;-67
2023/04/28 01:53:19;;;;;;;2.75;2.40;;;10.00;99.90;;;;;;5091532;28;20227;-67
2023/04/28 01:55:46;;;;;;;4.68;3.05;;;10.00;99.90;;;;;;5092072;28;20547;-68
2023/04/28 01:58:14;;;;;;;2.97;2.70;;;10.00;99.90;;;;;;5092048;28;20235;-68
2023/04/28 02:00:41;;;;;;;2.50;2.30;;;10.00;99.90;;;;;;5092276;28;20202;-68
2023/04/28 02:03:08;;;;;;;3.03;2.40;;;10.00;99.90;;;;;;5091417;28;20219;-67
2023/04/28 02:05:34;;;;;;;3.10;2.80;;;10.00;99.90;;;;;;5092218;28;20191;-68
2023/04/28 02:08:01;;;;;;;3.78;3.15;;;10.00;99.90;;;;;;5091842;28;20200;-68
2023/04/28 02:10:28;;;;;;;3.40;3.05;;;10.00;99.90;;;;;;5091906;28;20333;-67
2023/04/28 02:12:54;;;;;;;3.60;2.55;;;10.00;99.90;;;;;;5091371;28;20218;-67
2023/04/28 02:15:22;;;;;;;2.92;2.72;;;10.00;99.90;;;;;;5091732;28;20732;-68
2023/04/28 02:17:49;;;;;;;3.20;2.90;;;10.00;99.90;;;;;;5090642;28;20204;-67
2023/04/28 02:20:16;;;;;;;2.75;2.55;;;10.00;99.90;;;;;;5091919;28;20199;-67
2023/04/28 02:22:43;;;;;;;2.67;2.47;;;10.00;99.90;;;;;;5091565;28;20224;-68
2023/04/28 02:25:10;;;;;;;3.75;2.60;;;10.00;99.90;;;;;;5091911;28;20212;-68
2023/04/28 02:27:37;;;;;;;4.65;2.70;;;10.00;99.90;;;;;;5091738;28;20192;-68
2023/04/28 02:30:04;;;;;;;2.90;2.60;;;10.00;99.90;;;;;;5091407;28;20207;-68
2023/04/28 02:32:32;;;;;;;3.20;2.90;;;10.10;99.90;;;;;;5091074;28;20226;-67
2023/04/28 02:34:59;;;;;;;3.03;2.58;;;10.10;99.90;;;;;;5091490;28;20215;-67
2023/04/28 02:37:25;;;;;;;3.80;2.78;;;10.10;99.90;;;;;;5091430;28;20200;-68
2023/04/28 02:39:52;;;;;;;2.28;2.05;;;10.10;99.90;;;;;;5091034;28;20195;-67
2023/04/28 02:42:19;;;;;;;2.63;2.15;;;10.20;99.90;;;;;;5090910;28;20200;-68
2023/04/28 02:44:46;;;;;;;2.53;2.33;;;10.20;99.90;;;;;;5091304;28;20212;-68
2023/04/28 02:47:13;;;;;;;2.65;2.20;;;10.20;99.90;;;;;;5091169;28;20211;-68
2023/04/28 02:49:41;;;;;;;2.60;2.40;;;10.20;99.90;;;;;;5091190;28;20199;-67
2023/04/28 02:52:07;;;;;;;2.38;2.13;;;10.20;99.90;;;;;;5090888;28;20196;-68
2023/04/28 02:54:36;;;;;;;3.78;2.28;;;10.20;99.90;;;;;;5091078;28;20889;-68
2023/04/28 02:57:03;;;;;;;2.38;2.00;;;10.30;99.90;;;;;;5091076;28;20200;-68
2023/04/28 02:59:30;;;;;;;3.10;2.80;;;10.40;99.90;;;;;;5090847;28;20197;-68
2023/04/28 03:01:57;;;;;;;2.40;2.17;;;10.40;99.90;;;;;;5090561;28;20199;-68
2023/04/28 03:04:24;;;;;;;4.32;2.35;;;10.50;99.90;;;;;;5090883;28;20211;-68
2023/04/28 03:06:52;;;;;;;2.35;2.15;;;10.60;99.90;;;;;;5090770;28;20200;-67
2023/04/28 03:09:19;;;;;;;2.50;2.30;;;10.70;99.90;;;;;;5090568;28;20200;-67
2023/04/28 03:11:46;;;;;;;4.05;2.58;;;10.70;99.90;;;;;;5090632;28;20306;-67
2023/04/28 03:14:12;;;;;;;4.13;2.40;;;10.80;99.90;;;;;;5090465;28;20730;-68
2023/04/28 03:16:39;;;;;;;3.78;2.35;;;10.80;99.90;;;;;;5090923;28;20204;-67
2023/04/28 03:19:06;;;;;;;2.40;2.15;;;10.80;99.90;;;;;;5090774;28;20223;-67
2023/04/28 03:21:32;;;;;;;2.33;2.00;;;10.80;99.90;;;;;;5089920;28;20232;-68
2023/04/28 03:24:00;;;;;;;3.25;2.50;;;10.80;99.90;;;;;;5090288;28;20589;-68
2023/04/28 03:26:27;;;;;;;2.45;2.25;;;10.80;99.90;;;;;;5090166;28;20195;-68
2023/04/28 03:28:54;;;;;;;3.85;2.20;;;10.90;99.90;;;;;;5088816;28;20200;-67
2023/04/28 03:31:21;;;;;;;2.97;1.95;;;10.90;99.90;;;;;;5088923;28;20545;-67
2023/04/28 03:33:47;;;;;;;3.00;2.20;;;10.90;99.90;;;;;;5089454;28;20215;-68
2023/04/28 03:36:14;;;;;;;2.80;2.60;;;11.00;99.90;;;;;;5090658;28;20223;-68
2023/04/28 03:38:41;;;;;;;3.30;2.50;;;11.00;99.90;;;;;;5110548;28;20294;-68
2023/04/28 03:41:09;;;;;;;3.38;3.03;;;11.10;99.90;;;;;;5110383;28;20195;-68
2023/04/28 03:43:36;;;;;;;2.33;2.13;;;11.10;99.90;;;;;;5109942;28;20222;-69
2023/04/28 03:46:03;;;;;;;3.40;2.38;;;11.10;99.90;;;;;;5111112;28;20199;-69
2023/04/28 03:48:30;;;;;;;3.63;2.60;;;11.20;99.90;;;;;;5099771;28;20199;-68
2023/04/28 03:50:56;;;;;;;2.83;2.63;;;11.20;99.90;;;;;;5105142;28;20195;-68
2023/04/28 03:53:23;;;;;;;3.33;2.25;;;11.30;99.90;;;;;;5109013;28;20226;-68
2023/04/28 03:55:50;;;;;;;2.63;2.42;;;11.30;99.90;;;;;;5090415;28;20222;-68
2023/04/28 03:58:18;;;;;;;2.45;2.25;;;11.30;99.90;;;;;;5090209;28;20203;-68
2023/04/28 04:00:45;;;;;;;2.30;1.90;;;11.40;99.90;;;;;;5090407;28;20222;-68
2023/04/28 04:03:12;;;;;;;2.33;2.13;;;11.40;99.90;;;;;;5089950;28;20600;-68
2023/04/28 04:05:40;;;;;;;3.85;2.90;;;11.50;99.90;;;;;;5082276;28;20200;-68
2023/04/28 04:08:06;;;;;;;3.08;2.78;;;11.50;99.90;;;;;;5090192;28;20199;-67
2023/04/28 04:10:34;;;;;;;2.22;2.03;;;11.60;99.90;;;;;;5090252;28;20547;-68
2023/04/28 04:13:00;;;;;;;2.45;2.25;;;11.60;99.90;;;;;;5105056;28;20090;-68
2023/04/28 04:15:28;;;;;;;3.20;2.70;;;11.60;99.90;;;;;;5110481;28;20237;-67
2023/04/28 04:17:55;;;;;;;2.30;2.10;;;11.60;99.90;;;;;;5110421;28;20214;-67
2023/04/28 04:20:22;;;;;;;3.38;2.58;;;11.60;99.90;;;;;;5100873;28;20204;-67
2023/04/28 04:22:49;;;;;;;2.92;1.70;;;11.70;99.90;;;;;;5089737;28;20212;-66
2023/04/28 04:25:15;;;;;;;3.17;2.20;;;11.70;99.90;;;;;;5097281;28;20214;-67
2023/04/28 04:27:42;;;;;;;2.92;2.58;;;11.70;99.90;;;;;;5089355;28;20203;-66
2023/04/28 04:30:09;;;;;;;3.38;2.50;;;11.70;99.90;;;;;;5088045;28;20222;-66
2023/04/28 04:32:38;;;;;;;2.60;2.40;;;11.70;99.90;;;;;;5085988;28;20196;-66
2023/04/28 04:35:05;;;;;;;3.22;2.40;;;11.80;99.90;;;;;;5086449;28;20226;-66
2023/04/28 04:37:33;;;;;;;3.17;2.20;;;11.80;99.90;;;;;;5086831;28;20585;-66
2023/04/28 04:39:59;;;;;;;3.17;2.88;;;11.70;99.90;;;;;;5093640;28;20203;-66
2023/04/28 04:42:26;;;;;;;2.63;2.13;;;11.80;99.90;;;;;;5110866;28;20260;-67
2023/04/28 04:44:53;;;;;;;3.25;2.22;;;11.80;99.90;;;;;;5111873;28;20195;-66
2023/04/28 04:47:19;;;;;;;2.85;2.55;;;11.80;99.90;;;;;;5096429;28;20200;-66
2023/04/28 04:49:48;;;;;;;4.32;2.97;;;11.80;99.90;;;;;;5093279;28;20578;-66
2023/04/28 04:52:14;;;;;;;3.10;2.55;;;11.70;99.90;;;;;;5093164;28;20247;-68
2023/04/28 04:54:41;;;;;;;3.38;2.42;;;11.70;99.90;;;;;;5101860;28;20223;-67
2023/04/28 04:57:08;;;;;;;2.83;2.47;;;11.60;99.90;;;;;;5109466;28;20191;-67
2023/04/28 04:59:34;;;;;;;2.30;2.08;;;11.60;99.90;;;;;;5113475;28;20199;-67
2023/04/28 05:02:01;;;;;;;2.65;2.45;;;11.60;99.90;;;;;;5113268;28;20199;-67
2023/04/28 05:04:31;;;;;;;3.60;2.55;;;11.50;99.90;;;;;;5103380;28;20227;-66
2023/04/28 05:06:59;;;;;;;3.60;2.92;;;11.40;99.90;;;;;;5102150;28;20309;-67
2023/04/28 05:09:25;;;;;;;3.78;2.70;;;11.30;99.90;;;;;;5101659;28;20207;-67
2023/04/28 05:11:52;;;;;;;3.30;2.63;;;11.20;99.90;;;;;;5092793;28;20195;-67
2023/04/28 05:14:19;;;;;;;3.05;2.60;;;11.20;99.90;;;;;;5110004;28;20219;-66
2023/04/28 05:16:45;;;;;;;4.50;2.85;;;11.20;99.90;;;;;;5093038;28;20215;-67
2023/04/28 05:19:12;;;;;;;4.40;2.78;;;11.20;99.90;;;;;;5109478;28;20195;-67
2023/04/28 05:21:39;;;;;;;2.95;2.65;;;11.10;99.90;;;;;;5112929;28;20206;-66
2023/04/28 05:24:07;;;;;;;3.50;2.40;;;11.10;99.90;;;;;;5113097;28;20242;-67
2023/04/28 05:26:35;;;;;;;3.00;2.58;;;11.10;99.90;;;;;;5105041;28;20196;-67
2023/04/28 05:29:02;;;;;;;4.05;3.00;;;11.10;99.90;;;;;;5112453;28;20573;-67
2023/04/28 05:31:29;;;;;;;3.95;3.25;;;11.10;99.90;;;;;;5102541;27;20206;-67
2023/04/28 05:33:55;;;;;;;2.65;2.45;;;11.10;99.90;;;;;;5092199;28;20215;-67
2023/04/28 05:36:22;;;;;;;3.05;2.80;;;11.10;99.90;;;;;;5092052;28;20223;-66
2023/04/28 05:38:49;;;;;;;2.47;2.28;;;11.20;99.90;;;;;;5092261;28;20195;-67
2023/04/28 05:41:17;;;;;;;6.72;3.40;;;11.10;99.90;;;;;;5092368;28;20670;-68
2023/04/28 05:43:45;;;;;;;3.55;3.25;;;11.20;99.90;;;;;;5091696;28;20219;-68
2023/04/28 05:46:12;;;;;;;4.30;3.00;;;11.20;99.90;;;;;;5092073;28;20195;-68
2023/04/28 05:48:39;;;;;;;2.92;2.65;;;11.20;99.90;;;;;;5091698;28;20200;-67
2023/04/28 05:51:05;;;;;;;2.88;2.67;;;11.20;99.90;;;;;;5091530;28;20196;-67
2023/04/28 05:53:32;;;;;;;2.70;2.50;;;11.20;99.90;;;;;;5124984;22;20595;-90
2023/04/28 05:55:59;;;;;;;3.60;3.27;;;11.30;99.90;;;;;;5048316;28;20229;-91
2023/04/28 05:58:28;;;;;;;4.13;2.45;;;11.30;99.90;;;;;;5049773;28;20460;-90
2023/04/28 06:00:55;;;;;;;3.50;3.10;;;11.30;99.90;;;;;;5051009;28;20208;-92
2023/04/28 06:03:22;;;;;;;7.07;3.08;;;11.30;99.90;;;;;;5058302;22;20263;-69
2023/04/28 06:05:49;;;;;;;3.40;3.07;;;11.20;99.90;;;;;;5022891;28;20772;-69
2023/04/28 06:08:16;;;;;;;2.72;2.35;;;11.20;99.90;;;;;;5031720;28;20463;-69
2023/04/28 06:10:42;;;;;;;2.72;2.53;;;11.20;99.90;;;;;;5031641;28;20293;-70
2023/04/28 06:13:09;;;;;;;3.75;2.60;;;11.20;99.90;;;;;;5031658;28;20229;-70
2023/04/28 06:15:37;;;;;;;3.13;2.63;;;11.20;99.90;;;;;;5031608;28;20229;-70
2023/04/28 06:18:06;;;;;;;3.33;2.97;;;11.20;99.90;;;;;;5031872;28;20220;-70
2023/04/28 06:20:33;;;;;;;4.43;2.95;;;11.30;99.90;;;;;;5031256;28;20209;-69
2023/04/28 06:22:59;;;;;;;3.45;3.15;;;11.20;99.90;;;;;;5031815;28;20214;-70
2023/04/28 06:25:26;;;;;;;3.65;2.65;;;11.30;99.90;;;;;;5032383;28;20206;-70
2023/04/28 06:27:53;;;;;;;3.03;2.83;;;11.20;99.90;;;;;;5031760;28;20194;-69
2023/04/28 06:30:22;;;;;;;4.32;2.88;;;11.20;99.90;;;;;;5031915;28;20588;-69
2023/04/28 06:32:51;;;;;;;3.30;2.72;;;11.30;99.90;;;;;;5023156;28;20309;-69
2023/04/28 06:35:17;;;;;;;4.70;3.00;;;11.30;99.90;;;;;;5031561;28;20197;-70
2023/04/28 06:37:44;;;;;;;3.55;2.67;;;11.30;99.90;;;;;;5030728;28;20198;-70
2023/04/28 06:40:11;;;;;;;4.00;2.70;;;11.40;99.90;;;;;;5031542;28;20216;-69
2023/04/28 06:42:38;;;;;;;5.33;3.27;;;11.40;99.90;;;;;;5029642;28;20218;-70
2023/04/28 06:45:05;;;;;;;2.60;2.40;;;11.50;99.90;;;;;;5031596;28;20464;-69
2023/04/28 06:47:32;;;;;;;4.03;2.33;;;11.50;99.90;;;;;;5030442;28;20259;-69
2023/04/28 06:50:01;;;;;;;2.85;2.50;;;11.60;99.90;;;;;;5030991;28;20232;-69
2023/04/28 06:52:28;;;;;;;3.35;2.80;;;11.60;99.90;;;;;;5030122;28;20205;-70
2023/04/28 06:54:55;;;;;;;3.15;2.85;;;11.60;99.90;;;;;;5030902;28;20204;-70
2023/04/28 06:57:21;;;;;;;3.75;3.00;;;11.70;99.90;;;;;;5031364;28;20214;-70
2023/04/28 06:59:48;;;;;;;3.50;3.20;;;11.70;99.90;;;;;;5024282;28;20221;-70
2023/04/28 07:02:15;;;;;;;3.00;2.70;;;11.70;99.90;;;;;;5031764;28;20460;-69
2023/04/28 07:04:42;;;;;;;2.67;2.47;;;11.80;99.90;;;;;;5031133;28;20271;-70
2023/04/28 07:07:11;;;;;;;3.47;2.88;;;11.90;99.90;;;;;;5031785;28;20202;-70
2023/04/28 07:09:38;;;;;;;3.15;2.85;;;11.90;99.90;;;;;;5031196;28;20205;-70
2023/04/28 07:12:05;;;;;;;4.28;2.70;;;11.90;99.90;;;;;;5031338;28;20221;-70
2023/04/28 07:14:32;;;;;;;2.63;2.33;;;11.90;99.90;;;;;;5031297;28;20654;-70
2023/04/28 07:16:59;;;;;;;3.20;2.90;;;11.90;99.90;;;;;;5031075;28;20222;-70
2023/04/28 07:19:26;;;;;;;2.47;2.15;;;12.00;99.90;;;;;;5030722;28;20205;-70
2023/04/28 07:21:52;;;;;;;3.30;2.63;;;12.00;99.90;;;;;;5030124;28;20622;-70
2023/04/28 07:24:22;;;;;;;3.47;2.60;;;12.00;99.90;;;;;;5030424;28;20222;-70
2023/04/28 07:26:48;;;;;;;3.25;2.30;;;12.00;99.90;;;;;;5030803;28;20657;-70
2023/04/28 07:29:15;;;;;;;3.80;2.80;;;12.10;99.90;;;;;;5030479;28;20624;-70
2023/04/28 07:31:42;;;;;;;2.90;2.60;;;12.00;99.90;;;;;;5029528;28;20214;-70
2023/04/28 07:34:09;;;;;;;2.50;2.30;;;12.10;99.90;;;;;;5029775;28;20225;-70
2023/04/28 07:36:35;;;;;;;1.95;1.80;;;12.20;99.90;;;;;;5029665;28;20217;-70
2023/04/28 07:39:02;;;;;;;5.57;2.60;;;12.20;99.90;;;;;;5029740;28;20259;-70
2023/04/28 07:41:30;;;;;;;3.75;2.30;;;12.20;99.90;;;;;;5029540;28;20197;-70
2023/04/28 07:43:57;;;;;;;2.20;1.88;;;12.20;99.90;;;;;;5029784;28;20241;-70
2023/04/28 07:46:24;;;;;;;2.40;2.20;;;12.20;99.90;;;;;;5029766;28;20205;-70
2023/04/28 07:48:51;;;;;;;2.87;2.53;;;12.20;99.90;;;;;;5021729;28;20205;-70
2023/04/28 07:51:17;;;;;;;3.13;2.80;;;12.20;99.90;;;;;;5030170;28;20465;-70
2023/04/28 07:53:44;;;;;;;2.40;2.20;;;12.20;99.90;;;;;;5029615;28;20222;-70
2023/04/28 07:56:12;;;;;;;5.00;2.60;;;12.20;99.90;;;;;;5029824;28;20480;-70
2023/04/28 07:58:40;;;;;;;2.95;2.40;;;12.20;99.90;;;;;;5029195;28;20202;-70
2023/04/28 08:01:06;;;;;;;3.30;3.00;;;12.20;99.90;;;;;;5029856;28;20200;-70
2023/04/28 08:03:33;;;;;;;3.17;2.87;;;12.30;99.90;;;;;;5028812;28;20508;-70
2023/04/28 08:06:01;;;;;;;3.10;2.80;;;12.20;99.90;;;;;;5016675;28;20454;-70
2023/04/28 08:08:27;;;;;;;2.60;2.40;;;12.20;99.90;;;;;;5026226;28;20832;-70
2023/04/28 08:10:54;;;;;;;4.00;2.85;;;12.20;99.90;;;;;;5029638;28;20464;-70
2023/04/28 08:13:21;;;;;;;5.37;2.70;;;12.20;99.90;;;;;;5029365;28;20222;-70
2023/04/28 08:15:49;;;;;;;2.93;2.40;;;12.20;99.90;;;;;;5030908;28;20472;-70
2023/04/28 08:18:16;;;;;;;3.77;2.70;;;12.20;99.90;;;;;;5033512;28;20959;-70
2023/04/28 08:20:43;;;;;;;2.90;2.50;;;12.20;99.90;;;;;;5033305;28;20460;-70
2023/04/28 08:23:10;;;;;;;3.10;2.47;;;12.20;99.90;;;;;;5033256;28;21017;-70
2023/04/28 08:25:37;;;;;;;2.27;2.00;;;12.30;99.90;;;;;;5034133;28;20456;-70
2023/04/28 08:28:05;;;;;;;3.77;2.40;;;12.30;99.90;;;;;;5034025;28;20464;-70
2023/04/28 08:30:32;;;;;;;3.53;3.17;;;12.30;99.90;;;;;;5034019;28;20468;-70
2023/04/28 08:33:00;;;;;;;4.87;2.63;;;12.40;99.90;;;;;;5025724;28;20491;-70
2023/04/28 08:35:27;;;;;;;2.80;2.60;;;12.40;99.90;;;;;;5026358;28;20457;-69
2023/04/28 08:37:54;;;;;;;3.33;2.73;;;12.40;99.90;;;;;;5025614;28;20655;-70
2023/04/28 08:40:23;;;;;;;4.50;3.10;;;12.40;99.90;;;;;;5033947;28;20464;-70
2023/04/28 08:42:50;;;;;;;4.63;3.13;;;12.40;99.90;;;;;;5033090;28;20545;-70
2023/04/28 08:45:17;;;;;;;3.03;2.53;;;12.50;99.90;;;;;;5033824;28;20557;-70
2023/04/28 08:47:46;;;;;;;3.83;2.80;;;12.50;99.90;;;;;;5031365;28;20198;-69
2023/04/28 08:50:14;;;;;;;4.20;3.20;;;12.50;99.90;;;;;;5028100;28;20657;-70
2023/04/28 08:52:42;;;;;;;5.05;2.53;;;12.60;99.90;;;;;;5032931;28;20842;-70
2023/04/28 08:55:11;;;;;;;4.60;2.97;;;12.60;99.90;;;;;;5026957;28;20205;-70
2023/04/28 08:57:39;;;;;;;3.90;2.97;;;12.60;99.90;;;;;;5034820;28;20222;-70
2023/04/28 09:00:07;;;;;;;3.30;2.83;;;12.70;99.90;;;;;;5034401;28;20903;-70
2023/04/28 09:02:34;;;;;;;3.15;2.85;;;12.70;99.90;;;;;;5036627;28;20633;-70
2023/04/28 09:05:01;;;;;;;3.20;2.90;;;12.70;99.90;;;;;;5034311;28;20202;-70
2023/04/28 09:07:29;;;;;;;3.07;2.63;;;12.70;99.90;;;;;;5033694;28;20249;-71
2023/04/28 09:10:17;;;;;;;4.07;2.80;;;12.80;99.90;;;;;;5033701;28;20541;-69
2023/04/28 09:12:44;;;;;;;3.30;2.93;;;12.90;99.90;;;;;;5033228;28;20507;-70
2023/04/28 09:15:11;;;;;;;3.93;3.30;;;12.90;99.90;;;;;;5024936;28;20468;-70
2023/04/28 09:17:48;;;;;;;3.20;2.90;;;13.00;99.90;;;;;;5026857;28;20491;-70
2023/04/28 09:20:21;;;;;;;2.77;2.30;;;13.00;99.90;;;;;;5027635;28;20548;-70
2023/04/28 09:22:49;;;;;;;3.10;2.80;;;13.00;99.90;;;;;;5030739;28;20491;-71
2023/04/28 09:25:17;;;;;;;3.70;2.73;;;13.10;99.90;;;;;;5025810;28;20460;-70
2023/04/28 09:27:44;;;;;;;2.50;2.30;;;13.10;99.90;;;;;;5023956;28;20464;-70
2023/04/28 09:30:12;;;;;;;3.67;3.30;;;13.20;99.90;;;;;;5033082;28;21255;-70
2023/04/28 09:32:39;;;;;;;2.93;2.60;;;13.30;99.90;;;;;;5032256;28;20522;-70
2023/04/28 09:35:07;;;;;;;1.93;1.80;;;13.30;99.90;;;;;;5028202;28;20815;-70
2023/04/28 09:37:35;;;;;;;3.03;2.33;;;13.40;99.90;;;;;;5029529;28;20566;-70
2023/04/28 09:40:09;;;;;;;2.77;2.57;;;13.50;99.90;;;;;;5028605;28;20461;-70
2023/04/28 09:42:37;;;;;;;3.60;2.30;;;13.70;99.90;;;;;;5021285;28;20546;-70
2023/04/28 09:45:05;;;;;;;2.43;2.20;;;14.00;99.90;;;;;;5024847;28;20467;-71
2023/04/28 09:47:34;;;;;;;2.13;1.93;;;14.10;99.90;;;;;;5025281;28;20864;-71
2023/04/28 09:50:01;;;;;;;2.37;2.03;;;14.40;99.90;;;;;;5016636;28;20464;-70
2023/04/28 09:52:28;;;;;;;3.57;2.20;;;14.50;99.90;;;;;;5031710;28;20460;-70
2023/04/28 09:54:57;;;;;;;3.60;2.23;;;14.80;99.90;;;;;;5020302;28;20547;-70
2023/04/28 09:57:25;;;;;;;2.37;2.07;;;14.90;99.90;;;;;;5017801;28;20571;-70
2023/04/28 09:59:53;;;;;;;2.10;1.90;;;15.40;99.90;;;;;;5030649;28;20475;-70
2023/04/28 10:02:21;;;;;;;1.80;1.70;;;16.00;99.90;;;;;;5031503;28;20460;-70
2023/04/28 10:04:49;;;;;;;2.03;1.83;;;16.70;99.90;;;;;;5022037;28;20484;-69
2023/04/28 10:07:18;;;;;;;1.70;1.60;;;16.90;99.90;;;;;;5030410;28;20543;-70
2023/04/28 10:09:49;;;;;;;2.10;1.60;;;16.90;99.90;;;;;;5022691;28;20467;-70
2023/04/28 10:12:16;;;;;;;1.23;1.10;;;17.00;99.90;;;;;;5030787;28;20975;-70
2023/04/28 10:14:45;;;;;;;1.10;0.90;;;17.00;99.90;;;;;;5021226;28;20539;-70
2023/04/28 10:17:13;;;;;;;1.53;1.30;;;16.90;99.90;;;;;;5031102;28;20516;-69
2023/04/28 10:19:41;;;;;;;1.17;1.07;;;16.90;99.90;;;;;;5030890;28;20460;-69
2023/04/28 10:22:24;;;;;;;1.53;1.40;;;16.80;99.90;;;;;;5030719;28;20963;-70
2023/04/28 10:25:12;;;;;;;1.83;1.17;;;16.80;99.90;;;;;;5030848;28;20472;-69
2023/04/28 10:27:42;;;;;;;1.30;1.07;;;16.90;99.90;;;;;;5021874;28;20464;-69
2023/04/28 10:30:16;;;;;;;1.60;1.20;;;16.90;99.90;;;;;;5031290;28;20503;-70
2023/04/28 10:32:44;;;;;;;2.00;1.10;;;16.80;99.90;;;;;;5031774;28;20469;-70
2023/04/28 10:35:43;;;;;;;1.53;1.40;;;16.70;99.90;;;;;;5028361;28;20469;-70
2023/04/28 10:38:12;;;;;;;2.13;1.37;;;16.70;99.90;;;;;;5025265;28;20488;-70
2023/04/28 10:40:40;;;;;;;1.73;1.03;;;16.70;99.90;;;;;;5032178;28;20464;-70
2023/04/28 10:43:08;;;;;;;1.10;0.80;;;16.90;99.90;;;;;;5031647;28;20491;-70
2023/04/28 10:46:11;;;;;;;2.07;1.53;;;16.80;99.90;;;;;;5033069;28;20467;-69
2023/04/28 10:48:57;;;;;;;5.13;1.63;;;16.90;99.90;;;;;;5030318;28;20463;-70
2023/04/28 10:51:34;;;;;;;1.63;0.90;;;16.90;99.90;;;;;;5030755;28;20471;-70
2023/04/28 10:54:15;;;;;;;1.00;0.90;;;16.90;99.90;;;;;;5029894;28;20511;-70
2023/04/28 10:57:29;;;;;;;0.90;0.80;;;17.10;99.90;;;;;;5032097;28;20538;-69
2023/04/28 11:00:29;;;;;;;1.10;0.80;;;17.40;99.90;;;;;;5020497;28;20464;-70
2023/04/28 11:02:57;;;;;;;0.80;0.70;;;17.70;99.90;;;;;;5029926;28;20484;-70
2023/04/28 11:05:27;;;;;;;0.93;0.83;;;18.00;99.90;;;;;;5031199;28;20475;-70
2023/04/28 11:08:33;;;;;;;0.80;0.70;;;18.30;99.90;;;;;;5020491;28;20519;-70
2023/04/28 11:11:21;;;;;;;1.13;1.00;;;18.30;99.90;;;;;;5030202;28;20475;-70
2023/04/28 11:13:49;;;;;;;1.00;0.90;;;18.30;99.90;;;;;;5029710;28;20489;-71
2023/04/28 11:16:18;;;;;;;1.57;0.90;;;18.20;99.90;;;;;;5030704;28;20464;-71
2023/04/28 11:18:54;;;;;;;1.17;1.00;;;18.20;99.90;;;;;;5030825;28;20893;-70
2023/04/28 11:21:22;;;;;;;2.13;1.20;;;18.10;99.90;;;;;;5030040;28;20467;-70
2023/04/28 11:23:49;;;;;;;1.20;1.07;;;18.00;99.90;;;;;;5027084;28;20484;-70
2023/04/28 11:26:16;;;;;;;1.63;1.10;;;17.80;99.90;;;;;;5030776;28;20464;-69
2023/04/28 11:28:54;;;;;;;0.90;0.70;;;17.70;99.90;;;;;;5028978;28;20460;-70
2023/04/28 11:31:22;;;;;;;1.07;0.97;;;17.60;99.90;;;;;;5030338;28;20460;-70
2023/04/28 11:33:57;;;;;;;0.90;0.80;;;17.70;99.90;;;;;;5027024;28;20488;-69
2023/04/28 11:36:25;;;;;;;1.10;0.90;;;18.00;99.90;;;;;;5029789;28;20467;-70
2023/04/28 11:38:51;;;;;;;2.23;1.20;;;18.20;99.90;;;;;;5029552;28;20512;-70
2023/04/28 11:41:18;;;;;;;0.90;0.80;;;18.30;99.90;;;;;;5029256;28;20468;-70
2023/04/28 11:43:45;;;;;;;1.00;0.80;;;18.40;99.90;;;;;;5029126;28;20557;-69
2023/04/28 11:46:17;;;;;;;0.80;0.80;;;18.60;99.90;;;;;;5034704;28;20491;-69
2023/04/28 11:48:44;;;;;;;2.20;0.93;;;18.70;99.90;;;;;;5029541;28;20909;-70
2023/04/28 11:51:33;;;;;;;1.87;0.73;;;18.60;99.90;;;;;;5022202;28;20843;-70
2023/04/28 11:54:01;;;;;;;1.37;0.80;;;18.50;99.90;;;;;;5029203;28;20598;-69
2023/04/28 11:56:28;;;;;;;0.93;0.80;;;18.50;99.90;;;;;;5023923;28;20480;-70
2023/04/28 11:59:07;;;;;;;1.07;0.80;;;18.50;99.90;;;;;;5028124;28;20480;-69
2023/04/28 12:01:36;;;;;;;1.00;0.80;;;18.40;99.90;;;;;;5023137;28;20518;-70
2023/04/28 12:04:03;;;;;;;1.37;0.80;;;18.40;99.90;;;;;;5021155;28;21021;-69
2023/04/28 12:06:32;;;;;;;1.10;0.87;;;18.30;99.90;;;;;;5022081;28;20464;-69
2023/04/28 12:09:03;;;;;;;1.20;1.03;;;18.20;99.90;;;;;;5020148;28;20548;-69
2023/04/28 12:11:30;;;;;;;1.00;0.90;;;18.10;99.90;;;;;;5019991;28;20743;-69
2023/04/28 12:14:07;;;;;;;0.80;0.67;;;18.00;99.90;;;;;;5023145;28;20593;-69
2023/04/28 12:16:43;;;;;;;1.03;0.87;;;17.90;99.90;;;;;;5008031;28;20531;-69
2023/04/28 12:19:11;;;;;;;0.97;0.80;;;17.80;99.90;;;;;;5024797;28;20492;-69
2023/04/28 12:21:40;;;;;;;1.10;0.87;;;17.90;99.90;;;;;;5024921;28;20495;-69
2023/04/28 12:24:17;;;;;;;1.00;0.80;;;18.00;99.90;;;;;;5015743;28;20487;-70
2023/04/28 12:26:44;;;;;;;1.10;0.90;;;18.10;99.90;;;;;;5031043;28;20979;-69
2023/04/28 12:29:25;;;;;;;1.30;1.10;;;18.30;99.90;;;;;;5019743;28;20988;-70
2023/04/28 12:31:52;;;;;;;1.50;0.77;;;18.50;99.90;;;;;;5011848;28;20473;-71
2023/04/28 12:34:19;;;;;;;1.77;1.00;;;18.90;99.90;;;;;;5026139;28;20481;-70
2023/04/28 12:36:47;;;;;;;1.27;0.93;;;19.00;99.90;;;;;;5020265;28;20847;-70
2023/04/28 12:39:17;;;;;;;0.80;0.80;;;19.20;99.90;;;;;;5030920;28;20484;-71
2023/04/28 12:41:44;;;;;;;1.57;0.90;;;19.20;99.90;;;;;;5029042;28;20468;-70
2023/04/28 12:44:11;;;;;;;0.90;0.80;;;19.10;99.90;;;;;;5030815;28;20848;-70
2023/04/28 12:46:37;;;;;;;0.90;0.80;;;19.00;99.90;;;;;;5031829;28;20460;-70
2023/04/28 12:49:04;;;;;;;1.10;0.97;;;18.80;99.90;;;;;;5029679;28;20464;-70
2023/04/28 12:51:33;;;;;;;0.80;0.70;;;18.60;99.90;;;;;;5031073;28;20485;-70
2023/04/28 12:54:01;;;;;;;0.90;0.73;;;18.50;99.90;;;;;;5029864;28;20480;-69